Time;durP1;ratioP1;P1;durP2;ratioP2;P2;SDS_P1;SDS_P2;PMS_P1;PMS_P2;Temp;Humidity;BMP_temperature;BMP_pressure;BME280_temperature;BME280_humidity;BME280_pressure;Samples;Min_cycle;Max_cycle;Signal;HPM_P1;HPM_P2
2022/01/09 00:01:56;;;;;;;1.00;0.40;;;3.10;1.00;;;;;;5051094;28;20707;-62
2022/01/09 00:04:22;;;;;;;0.50;0.50;;;3.10;1.00;;;;;;5051376;28;20497;-62
2022/01/09 00:06:49;;;;;;;1.40;0.60;;;3.10;1.00;;;;;;5051477;28;20497;-63
2022/01/09 00:09:16;;;;;;;1.00;0.60;;;3.10;1.00;;;;;;5051224;28;20472;-61
2022/01/09 00:11:43;;;;;;;0.60;0.60;;;3.10;1.00;;;;;;5051188;28;20256;-59
2022/01/09 00:14:11;;;;;;;0.60;0.50;;;3.10;1.00;;;;;;5050579;28;20467;-65
2022/01/09 00:16:38;;;;;;;0.60;0.50;;;3.10;1.00;;;;;;5051575;28;20451;-61
2022/01/09 00:19:04;;;;;;;0.60;0.60;;;3.10;1.00;;;;;;5051953;28;20838;-61
2022/01/09 00:21:31;;;;;;;0.70;0.60;;;3.10;1.00;;;;;;5051801;28;20483;-62
2022/01/09 00:23:58;;;;;;;0.80;0.70;;;3.10;1.00;;;;;;5051819;28;20448;-61
2022/01/09 00:26:25;;;;;;;0.80;0.70;;;3.10;1.00;;;;;;5051056;28;20447;-61
2022/01/09 00:28:51;;;;;;;0.63;0.50;;;3.10;1.00;;;;;;5051416;28;20472;-60
2022/01/09 00:31:19;;;;;;;0.50;0.50;;;3.10;1.00;;;;;;5051509;28;20455;-57
2022/01/09 00:33:46;;;;;;;0.93;0.60;;;3.20;1.00;;;;;;5051690;28;20456;-56
2022/01/09 00:36:13;;;;;;;0.60;0.60;;;3.20;1.00;;;;;;5051489;28;20452;-59
2022/01/09 00:38:40;;;;;;;0.83;0.73;;;3.20;1.00;;;;;;5051228;28;20553;-57
2022/01/09 00:41:07;;;;;;;0.80;0.60;;;3.20;1.00;;;;;;5051207;28;20455;-57
2022/01/09 00:43:34;;;;;;;0.53;0.47;;;3.20;1.00;;;;;;5053191;28;20923;-61
2022/01/09 00:46:00;;;;;;;0.80;0.70;;;3.20;1.00;;;;;;5051350;28;20443;-60
2022/01/09 00:48:28;;;;;;;0.77;0.73;;;3.20;1.00;;;;;;5051548;28;20448;-60
2022/01/09 00:50:55;;;;;;;0.77;0.70;;;3.30;1.00;;;;;;5051743;28;20475;-59
2022/01/09 00:53:22;;;;;;;1.43;0.50;;;3.30;1.00;;;;;;5051125;28;20494;-59
2022/01/09 00:55:48;;;;;;;0.70;0.70;;;3.40;1.00;;;;;;5050833;28;20451;-60
2022/01/09 00:58:15;;;;;;;1.20;0.80;;;3.40;1.00;;;;;;5051358;28;20212;-59
2022/01/09 01:00:41;;;;;;;0.80;0.70;;;3.40;1.00;;;;;;5052034;28;20236;-60
2022/01/09 01:03:08;;;;;;;1.20;0.77;;;3.40;1.00;;;;;;5055448;28;20233;-60
2022/01/09 01:05:36;;;;;;;0.80;0.60;;;3.40;1.00;;;;;;5054823;28;20210;-57
2022/01/09 01:08:04;;;;;;;0.73;0.70;;;3.40;1.00;;;;;;5055460;28;20633;-59
2022/01/09 01:10:30;;;;;;;0.60;0.60;;;3.40;1.00;;;;;;5057742;28;21130;-60
2022/01/09 01:12:57;;;;;;;1.10;0.70;;;3.40;1.00;;;;;;5056296;28;20562;-59
2022/01/09 01:15:24;;;;;;;0.80;0.80;;;3.50;1.00;;;;;;5054809;28;20509;-58
2022/01/09 01:17:50;;;;;;;0.73;0.73;;;3.50;1.00;;;;;;5054528;28;20220;-56
2022/01/09 01:20:20;;;;;;;0.67;0.67;;;3.50;1.00;;;;;;5056165;28;20242;-59
2022/01/09 01:22:51;;;;;;;1.00;0.60;;;3.50;1.00;;;;;;5056388;28;20510;-58
2022/01/09 01:25:18;;;;;;;0.50;0.50;;;3.50;1.00;;;;;;5055328;28;20210;-59
2022/01/09 01:27:44;;;;;;;1.00;0.60;;;3.50;1.00;;;;;;5054401;28;20225;-60
2022/01/09 01:30:11;;;;;;;0.60;0.50;;;3.50;1.00;;;;;;5054587;28;20610;-58
2022/01/09 01:32:38;;;;;;;0.57;0.53;;;3.60;1.00;;;;;;5054479;28;20198;-60
2022/01/09 01:35:06;;;;;;;0.63;0.50;;;3.50;1.00;;;;;;5054533;28;20448;-59
2022/01/09 01:37:33;;;;;;;2.50;0.80;;;3.50;1.00;;;;;;5055060;28;20206;-60
2022/01/09 01:40:01;;;;;;;0.80;0.60;;;3.60;1.00;;;;;;5054233;28;20468;-59
2022/01/09 01:42:27;;;;;;;0.60;0.60;;;3.60;1.00;;;;;;5054172;28;20226;-61
2022/01/09 01:44:54;;;;;;;0.60;0.60;;;3.60;1.00;;;;;;5054312;28;20698;-60
2022/01/09 01:47:22;;;;;;;0.60;0.60;;;3.60;1.00;;;;;;5053929;28;20210;-60
2022/01/09 01:49:49;;;;;;;0.40;0.40;;;3.60;1.00;;;;;;5054146;28;20464;-60
2022/01/09 01:52:17;;;;;;;0.50;0.50;;;3.60;1.00;;;;;;5053919;28;20672;-59
2022/01/09 01:54:44;;;;;;;1.07;0.60;;;3.60;1.00;;;;;;5054348;28;20505;-59
2022/01/09 01:57:13;;;;;;;0.97;0.60;;;3.60;1.00;;;;;;5053841;28;20444;-59
2022/01/09 01:59:40;;;;;;;0.40;0.40;;;3.60;1.00;;;;;;5053896;28;20472;-58
2022/01/09 02:02:07;;;;;;;0.67;0.57;;;3.60;1.00;;;;;;5053597;28;20756;-60
2022/01/09 02:04:33;;;;;;;0.43;0.40;;;3.60;1.00;;;;;;5053739;28;20995;-58
2022/01/09 02:07:03;;;;;;;0.63;0.50;;;3.60;1.00;;;;;;5053898;28;20457;-59
2022/01/09 02:09:29;;;;;;;0.63;0.60;;;3.60;1.00;;;;;;5053663;28;20249;-59
2022/01/09 02:11:56;;;;;;;0.83;0.83;;;3.60;1.00;;;;;;5053411;28;20499;-60
2022/01/09 02:14:24;;;;;;;0.47;0.40;;;3.60;1.00;;;;;;5053128;28;20464;-58
2022/01/09 02:16:51;;;;;;;1.00;0.70;;;3.60;1.00;;;;;;5053346;28;20678;-59
2022/01/09 02:19:21;;;;;;;0.90;0.73;;;3.60;1.00;;;;;;5053644;28;20494;-59
2022/01/09 02:21:49;;;;;;;1.40;0.63;;;3.60;1.00;;;;;;5053611;28;20264;-59
2022/01/09 02:24:16;;;;;;;1.10;0.70;;;3.60;1.00;;;;;;5053291;28;20457;-58
2022/01/09 02:26:42;;;;;;;1.33;0.70;;;3.70;1.00;;;;;;5053308;28;20217;-60
2022/01/09 02:29:10;;;;;;;0.93;0.73;;;3.80;1.00;;;;;;5053428;28;20272;-59
2022/01/09 02:31:37;;;;;;;1.10;0.80;;;3.70;1.00;;;;;;5053052;28;20966;-60
2022/01/09 02:34:04;;;;;;;1.40;0.80;;;3.80;1.00;;;;;;5053730;28;20202;-60
2022/01/09 02:36:31;;;;;;;2.23;1.00;;;3.70;1.00;;;;;;5053056;28;20619;-60
2022/01/09 02:38:59;;;;;;;2.60;0.90;;;3.70;1.00;;;;;;5053226;28;20226;-59
2022/01/09 02:41:26;;;;;;;1.13;0.87;;;3.70;1.00;;;;;;5052963;28;20452;-59
2022/01/09 02:43:52;;;;;;;1.33;1.03;;;3.70;1.00;;;;;;5052892;28;20292;-60
2022/01/09 02:46:34;;;;;;;0.90;0.80;;;3.80;1.00;;;;;;5052714;28;20206;-61
2022/01/09 02:49:04;;;;;;;2.67;0.90;;;3.90;1.00;;;;;;5052924;28;20567;-60
2022/01/09 02:51:31;;;;;;;1.93;1.00;;;3.90;1.00;;;;;;5053174;28;20595;-61
2022/01/09 02:55:04;;;;;;;1.07;1.00;;;3.90;1.00;;;;;;5053215;28;20209;-60
2022/01/09 02:56:46;;;;;;;2.00;1.40;;;3.90;1.00;;;;;;5052943;28;20259;-60
2022/01/09 02:59:13;;;;;;;1.30;1.20;;;3.90;1.00;;;;;;5052928;28;20269;-59
2022/01/09 03:01:39;;;;;;;1.00;0.90;;;3.90;1.00;;;;;;5052777;28;20203;-57
2022/01/09 03:04:06;;;;;;;1.60;1.23;;;4.00;1.00;;;;;;5052645;28;20277;-58
2022/01/09 03:06:32;;;;;;;1.70;1.53;;;4.00;1.00;;;;;;5052583;28;20636;-59
2022/01/09 03:09:02;;;;;;;2.20;2.00;;;4.00;1.00;;;;;;5052399;28;20647;-57
2022/01/09 03:11:29;;;;;;;4.13;1.80;;;4.00;1.00;;;;;;5052412;28;20217;-59
2022/01/09 03:13:56;;;;;;;2.63;2.17;;;4.00;1.00;;;;;;5052902;28;20211;-60
2022/01/09 03:16:23;;;;;;;2.47;2.00;;;3.90;1.00;;;;;;5052278;28;20210;-60
2022/01/09 03:18:50;;;;;;;2.90;1.97;;;3.90;1.00;;;;;;5052616;28;20671;-59
2022/01/09 03:21:16;;;;;;;2.83;2.17;;;3.90;1.00;;;;;;5052368;28;20257;-57
2022/01/09 03:23:43;;;;;;;4.43;2.37;;;4.00;1.00;;;;;;5052024;28;20657;-60
2022/01/09 03:26:11;;;;;;;3.10;2.10;;;4.00;1.00;;;;;;5052443;28;20626;-59
2022/01/09 03:28:38;;;;;;;3.17;2.23;;;3.90;1.00;;;;;;5052200;28;20257;-59
2022/01/09 03:31:05;;;;;;;5.53;3.30;;;4.00;1.00;;;;;;5052395;28;20220;-58
2022/01/09 03:33:31;;;;;;;3.60;2.73;;;4.00;1.00;;;;;;5052261;28;20202;-59
2022/01/09 03:35:58;;;;;;;4.17;3.20;;;4.00;1.00;;;;;;5052364;28;20213;-59
2022/01/09 03:38:25;;;;;;;4.50;2.87;;;4.10;1.40;;;;;;5051766;28;20252;-57
2022/01/09 03:40:51;;;;;;;3.00;2.00;;;4.10;4.70;;;;;;5052193;28;20289;-58
2022/01/09 03:43:20;;;;;;;2.23;1.60;;;4.20;5.90;;;;;;5052110;28;20230;-60
2022/01/09 03:45:47;;;;;;;3.40;1.70;;;4.20;3.40;;;;;;5051841;28;20254;-60
2022/01/09 03:48:14;;;;;;;3.77;1.73;;;4.20;1.00;;;;;;5051972;28;20300;-60
2022/01/09 03:50:41;;;;;;;1.53;0.93;;;4.20;1.00;;;;;;5052038;28;20235;-58
2022/01/09 03:53:12;;;;;;;2.03;0.83;;;4.20;1.00;;;;;;5051824;28;20746;-59
2022/01/09 03:55:38;;;;;;;1.83;0.90;;;4.20;1.00;;;;;;5052117;28;20208;-60
2022/01/09 03:58:06;;;;;;;1.97;0.80;;;4.20;1.00;;;;;;5051896;28;20216;-59
2022/01/09 04:00:34;;;;;;;1.13;0.70;;;4.10;1.00;;;;;;5051915;28;20239;-60
2022/01/09 04:03:01;;;;;;;4.37;1.07;;;4.10;1.00;;;;;;5051526;28;20239;-60
2022/01/09 04:05:28;;;;;;;1.47;0.80;;;4.10;1.00;;;;;;5051689;28;20215;-58
2022/01/09 04:07:54;;;;;;;1.67;0.87;;;4.10;1.00;;;;;;5051320;28;20216;-56
2022/01/09 04:10:25;;;;;;;1.57;0.80;;;4.20;1.00;;;;;;5051770;28;20581;-58
2022/01/09 04:12:58;;;;;;;2.13;0.93;;;4.20;1.00;;;;;;5051689;28;20211;-56
2022/01/09 04:15:25;;;;;;;2.23;0.80;;;4.20;1.00;;;;;;5051644;28;20327;-59
2022/01/09 04:17:55;;;;;;;2.43;1.03;;;4.10;1.00;;;;;;5052011;28;20693;-59
2022/01/09 04:20:23;;;;;;;3.50;1.13;;;4.20;1.00;;;;;;5051560;28;20322;-57
2022/01/09 04:22:50;;;;;;;3.00;1.10;;;4.20;1.00;;;;;;5051561;28;20589;-57
2022/01/09 04:25:17;;;;;;;4.87;0.90;;;4.20;1.00;;;;;;5051527;28;20204;-58
2022/01/09 04:27:45;;;;;;;4.40;1.10;;;4.20;1.00;;;;;;5051491;28;20210;-58
2022/01/09 04:30:12;;;;;;;4.03;1.00;;;4.20;1.00;;;;;;5051391;28;20235;-57
2022/01/09 04:32:39;;;;;;;3.47;0.87;;;4.20;1.00;;;;;;5051919;28;20211;-59
2022/01/09 04:35:09;;;;;;;2.33;0.90;;;4.20;1.00;;;;;;5051897;28;20212;-60
2022/01/09 04:37:36;;;;;;;2.67;0.97;;;4.20;1.00;;;;;;5055218;28;20210;-58
2022/01/09 04:40:06;;;;;;;3.17;1.10;;;4.20;1.00;;;;;;5055529;28;20646;-59
2022/01/09 04:42:38;;;;;;;3.93;1.17;;;4.20;3.30;;;;;;5056795;28;20213;-60
2022/01/09 04:45:07;;;;;;;6.00;1.50;;;4.30;6.30;;;;;;5061105;28;20235;-59
2022/01/09 04:47:34;;;;;;;4.37;1.47;;;4.30;8.00;;;;;;5058007;28;20211;-60
2022/01/09 04:50:02;;;;;;;4.43;1.50;;;4.30;9.80;;;;;;5055222;28;20689;-59
2022/01/09 04:52:33;;;;;;;9.93;1.90;;;4.40;12.20;;;;;;5055056;28;20674;-60
2022/01/09 04:55:00;;;;;;;5.30;1.93;;;4.40;13.20;;;;;;5055265;28;20215;-60
2022/01/09 04:57:27;;;;;;;11.97;2.87;;;4.40;14.90;;;;;;5054862;28;20212;-60
2022/01/09 04:59:53;;;;;;;14.63;3.03;;;4.50;18.40;;;;;;5055121;28;20235;-59
2022/01/09 05:02:20;;;;;;;17.27;3.70;;;4.60;21.50;;;;;;5055085;28;20212;-60
2022/01/09 05:04:47;;;;;;;14.87;3.73;;;4.70;24.40;;;;;;5054716;28;20289;-59
2022/01/09 05:07:13;;;;;;;16.50;3.90;;;4.70;26.00;;;;;;5054984;28;20205;-59
2022/01/09 05:09:41;;;;;;;18.43;4.30;;;4.80;27.50;;;;;;5054712;28;20229;-57
2022/01/09 05:12:09;;;;;;;16.33;3.77;;;4.80;28.00;;;;;;5054765;28;20609;-59
2022/01/09 05:14:36;;;;;;;15.77;5.07;;;4.90;29.90;;;;;;5054804;28;20215;-58
2022/01/09 05:17:03;;;;;;;21.20;5.07;;;4.90;30.10;;;;;;5054699;28;20634;-59
2022/01/09 05:19:32;;;;;;;20.70;5.10;;;5.00;29.80;;;;;;5054376;28;20649;-59
2022/01/09 05:22:00;;;;;;;20.43;5.47;;;5.00;29.00;;;;;;5054750;28;20205;-58
2022/01/09 05:24:27;;;;;;;27.43;5.73;;;5.10;27.90;;;;;;5054367;28;20224;-59
2022/01/09 05:26:55;;;;;;;18.47;4.77;;;5.10;25.70;;;;;;5054595;28;20738;-58
2022/01/09 05:29:22;;;;;;;24.43;5.27;;;5.10;22.10;;;;;;5054644;28;20232;-60
2022/01/09 05:31:49;;;;;;;20.40;5.23;;;5.10;18.20;;;;;;5054525;28;20627;-59
2022/01/09 05:34:16;;;;;;;21.57;4.40;;;5.00;10.70;;;;;;5054226;28;20291;-58
2022/01/09 05:36:43;;;;;;;19.47;5.20;;;5.10;6.10;;;;;;5054344;28;20207;-58
2022/01/09 05:39:09;;;;;;;17.00;3.90;;;5.00;1.00;;;;;;5053939;28;20232;-58
2022/01/09 05:41:37;;;;;;;17.93;4.83;;;5.00;1.00;;;;;;5054491;28;20220;-59
2022/01/09 05:44:05;;;;;;;15.23;5.83;;;5.00;1.00;;;;;;5054233;28;20229;-59
2022/01/09 05:46:32;;;;;;;19.87;6.43;;;5.00;1.00;;;;;;5054192;28;20219;-60
2022/01/09 05:48:58;;;;;;;16.53;6.27;;;5.00;1.00;;;;;;5053983;28;20229;-60
2022/01/09 05:51:25;;;;;;;24.80;6.47;;;5.00;1.00;;;;;;5055276;28;20215;-60
2022/01/09 05:53:52;;;;;;;14.73;5.67;;;5.00;1.00;;;;;;5055206;28;20204;-58
2022/01/09 05:56:19;;;;;;;22.33;5.53;;;5.00;1.00;;;;;;5054244;28;20209;-59
2022/01/09 05:58:45;;;;;;;14.67;5.60;;;5.00;1.00;;;;;;5054057;28;20656;-58
2022/01/09 06:01:13;;;;;;;19.80;6.20;;;4.90;1.00;;;;;;5053908;28;20258;-58
2022/01/09 06:03:40;;;;;;;19.23;5.50;;;4.90;1.00;;;;;;5053903;28;20706;-58
2022/01/09 06:06:07;;;;;;;19.30;4.93;;;5.00;1.00;;;;;;5053616;28;20253;-59
2022/01/09 06:08:34;;;;;;;21.53;4.10;;;5.00;1.00;;;;;;5053556;28;20732;-58
2022/01/09 06:11:01;;;;;;;17.23;4.23;;;5.00;1.00;;;;;;5054047;28;20209;-58
2022/01/09 06:13:27;;;;;;;19.33;4.40;;;5.00;1.00;;;;;;5053597;28;20201;-57
2022/01/09 06:15:54;;;;;;;8.70;2.93;;;4.90;1.00;;;;;;5053575;28;20296;-60
2022/01/09 06:18:22;;;;;;;9.90;2.50;;;4.90;1.00;;;;;;5053402;28;20215;-59
2022/01/09 06:20:50;;;;;;;21.83;5.13;;;4.90;1.00;;;;;;5053386;28;20223;-58
2022/01/09 06:23:20;;;;;;;12.90;4.43;;;4.90;1.00;;;;;;5053388;28;20211;-59
2022/01/09 06:25:47;;;;;;;20.03;5.00;;;4.90;1.00;;;;;;5053885;28;20627;-60
2022/01/09 06:28:14;;;;;;;16.53;4.13;;;4.90;1.00;;;;;;5053691;28;20299;-60
2022/01/09 06:30:41;;;;;;;11.57;4.37;;;5.00;1.00;;;;;;5053635;28;20256;-60
2022/01/09 06:33:08;;;;;;;15.37;3.83;;;4.90;1.00;;;;;;5060060;28;20197;-59
2022/01/09 06:35:36;;;;;;;18.83;4.00;;;4.90;1.00;;;;;;5053816;28;20208;-60
2022/01/09 06:38:03;;;;;;;14.40;3.70;;;4.90;1.00;;;;;;5053729;28;20222;-61
2022/01/09 06:40:30;;;;;;;17.57;3.00;;;4.90;1.00;;;;;;5053165;28;20244;-60
2022/01/09 06:42:56;;;;;;;18.03;3.77;;;4.90;1.00;;;;;;5053273;28;20212;-60
2022/01/09 06:45:24;;;;;;;16.77;3.40;;;4.90;1.00;;;;;;5052991;28;20228;-59
2022/01/09 06:47:51;;;;;;;14.60;3.33;;;4.80;1.00;;;;;;5052613;28;20554;-60
2022/01/09 06:50:18;;;;;;;11.30;3.27;;;4.90;1.00;;;;;;5053191;28;20604;-58
2022/01/09 06:52:46;;;;;;;7.57;2.40;;;4.80;1.00;;;;;;5052959;28;20207;-57
2022/01/09 06:55:13;;;;;;;20.47;4.13;;;4.80;1.00;;;;;;5053205;28;20199;-59
2022/01/09 06:57:40;;;;;;;12.10;3.10;;;4.80;1.00;;;;;;5052772;28;20262;-59
2022/01/09 07:00:08;;;;;;;15.83;3.70;;;4.80;1.00;;;;;;5052512;28;20294;-59
2022/01/09 07:02:35;;;;;;;8.33;2.80;;;4.80;1.00;;;;;;5052589;28;20681;-60
2022/01/09 07:05:02;;;;;;;12.40;2.93;;;4.70;1.00;;;;;;5052831;28;20226;-60
2022/01/09 07:07:29;;;;;;;9.60;2.67;;;4.70;1.00;;;;;;5052739;28;20212;-59
2022/01/09 07:09:58;;;;;;;11.47;1.93;;;4.70;1.00;;;;;;5052617;28;20610;-60
2022/01/09 07:12:24;;;;;;;16.60;2.87;;;4.70;1.00;;;;;;5052809;28;20216;-59
2022/01/09 07:14:51;;;;;;;17.73;2.83;;;4.70;1.00;;;;;;5052144;28;20211;-58
2022/01/09 07:17:18;;;;;;;8.90;2.43;;;4.70;1.00;;;;;;5052768;28;20203;-59
2022/01/09 07:19:45;;;;;;;8.63;2.73;;;4.70;1.00;;;;;;5052386;28;20228;-59
2022/01/09 07:22:11;;;;;;;6.70;2.30;;;4.70;1.00;;;;;;5052239;28;20216;-60
2022/01/09 07:24:38;;;;;;;9.20;2.80;;;4.60;1.00;;;;;;5052297;28;20703;-59
2022/01/09 07:27:06;;;;;;;12.13;2.90;;;4.60;1.00;;;;;;5052137;28;20211;-59
2022/01/09 07:29:34;;;;;;;12.57;2.93;;;4.60;1.00;;;;;;5052082;28;20241;-60
2022/01/09 07:32:01;;;;;;;11.03;2.80;;;4.50;1.00;;;;;;5052202;28;20216;-59
2022/01/09 07:34:28;;;;;;;15.47;3.40;;;4.60;1.00;;;;;;5052461;28;20207;-60
2022/01/09 07:36:54;;;;;;;12.43;3.60;;;4.60;1.00;;;;;;5051862;28;20218;-61
2022/01/09 07:39:21;;;;;;;6.77;2.37;;;4.60;1.00;;;;;;5052038;28;20230;-60
2022/01/09 07:41:49;;;;;;;9.20;2.90;;;4.60;1.00;;;;;;5052084;28;20204;-59
2022/01/09 07:44:17;;;;;;;10.60;3.13;;;4.60;1.00;;;;;;5052065;28;20324;-61
2022/01/09 07:46:44;;;;;;;9.93;3.03;;;4.60;1.00;;;;;;5051941;28;20220;-60
2022/01/09 07:49:10;;;;;;;9.40;2.57;;;4.60;1.00;;;;;;5051840;28;20288;-61
2022/01/09 07:51:37;;;;;;;12.37;3.30;;;4.50;1.00;;;;;;5051996;28;20259;-56
2022/01/09 07:54:04;;;;;;;13.07;3.03;;;4.50;1.00;;;;;;5051783;28;20256;-58
2022/01/09 07:56:31;;;;;;;8.60;3.10;;;4.50;1.00;;;;;;5053416;28;20210;-61
2022/01/09 07:58:58;;;;;;;10.47;3.40;;;4.50;1.00;;;;;;5053295;28;20243;-60
2022/01/09 08:01:25;;;;;;;9.73;3.10;;;4.50;1.00;;;;;;5051700;28;20208;-58
2022/01/09 08:03:52;;;;;;;10.37;3.43;;;4.50;1.00;;;;;;5052084;28;20225;-60
2022/01/09 08:06:19;;;;;;;9.43;3.17;;;4.50;1.00;;;;;;5052636;28;20254;-60
2022/01/09 08:08:46;;;;;;;4.87;2.03;;;4.50;1.00;;;;;;5053911;28;20219;-60
2022/01/09 08:11:12;;;;;;;8.43;2.73;;;4.50;1.00;;;;;;5051308;28;20211;-59
2022/01/09 08:13:39;;;;;;;6.40;2.70;;;4.50;1.00;;;;;;5051714;28;20218;-60
2022/01/09 08:16:06;;;;;;;8.87;2.77;;;4.50;1.00;;;;;;5052128;28;20215;-58
2022/01/09 08:18:34;;;;;;;10.90;3.27;;;4.50;1.00;;;;;;5051757;28;20212;-60
2022/01/09 08:21:00;;;;;;;7.37;2.60;;;4.50;1.00;;;;;;5051738;28;20206;-59
2022/01/09 08:23:27;;;;;;;12.47;3.87;;;4.50;1.00;;;;;;5051354;28;20212;-59
2022/01/09 08:25:54;;;;;;;9.80;2.70;;;4.60;1.00;;;;;;5051995;28;20223;-61
2022/01/09 08:28:20;;;;;;;11.30;3.10;;;4.50;1.00;;;;;;5051794;28;20207;-60
2022/01/09 08:30:47;;;;;;;8.90;2.97;;;4.50;1.00;;;;;;5051366;28;20581;-60
2022/01/09 08:33:14;;;;;;;8.40;2.73;;;4.60;1.00;;;;;;5051964;28;20612;-61
2022/01/09 08:35:42;;;;;;;10.77;3.07;;;4.60;1.00;;;;;;5051475;28;20200;-61
2022/01/09 08:38:09;;;;;;;2.70;1.60;;;4.60;1.00;;;;;;5051123;28;20212;-59
2022/01/09 08:40:36;;;;;;;10.83;2.57;;;4.50;1.00;;;;;;5051537;28;20228;-59
2022/01/09 08:43:02;;;;;;;7.53;2.40;;;4.50;1.00;;;;;;5051659;28;20215;-60
2022/01/09 08:45:29;;;;;;;13.97;3.87;;;4.50;1.00;;;;;;5051430;28;20231;-60
2022/01/09 08:47:56;;;;;;;14.87;3.43;;;4.60;1.00;;;;;;5051327;28;20211;-59
2022/01/09 08:50:23;;;;;;;11.90;3.20;;;4.50;1.00;;;;;;5051434;28;20287;-60
2022/01/09 08:52:52;;;;;;;7.40;2.43;;;4.60;1.00;;;;;;5051349;28;20206;-60
2022/01/09 08:55:18;;;;;;;8.00;3.13;;;4.50;1.00;;;;;;5051478;28;20201;-60
2022/01/09 08:57:45;;;;;;;13.30;2.80;;;4.50;1.00;;;;;;5051323;28;20316;-60
2022/01/09 09:00:13;;;;;;;9.93;3.00;;;4.50;1.00;;;;;;5051475;28;20605;-60
2022/01/09 09:02:41;;;;;;;10.23;2.83;;;4.60;1.00;;;;;;5051366;28;20270;-60
2022/01/09 09:05:08;;;;;;;14.57;3.33;;;4.60;1.00;;;;;;5051028;28;20315;-60
2022/01/09 09:07:35;;;;;;;6.50;3.00;;;4.50;1.00;;;;;;5051569;28;20261;-62
2022/01/09 09:10:04;;;;;;;8.17;3.20;;;4.60;1.00;;;;;;5051287;28;20271;-62
2022/01/09 09:12:31;;;;;;;9.20;3.13;;;4.60;1.00;;;;;;5051289;28;20686;-61
2022/01/09 09:14:59;;;;;;;14.30;3.33;;;4.60;1.00;;;;;;5052855;28;20220;-64
2022/01/09 09:17:25;;;;;;;8.47;3.07;;;4.60;1.00;;;;;;5053722;28;20257;-65
2022/01/09 09:19:52;;;;;;;17.57;3.57;;;4.60;1.00;;;;;;5053573;28;20228;-63
2022/01/09 09:22:19;;;;;;;9.20;2.73;;;4.70;1.00;;;;;;5055622;28;20209;-64
2022/01/09 09:24:46;;;;;;;5.53;2.50;;;4.70;1.00;;;;;;5057547;28;20233;-63
2022/01/09 09:27:14;;;;;;;13.30;2.97;;;4.70;1.00;;;;;;5058443;28;20219;-64
2022/01/09 09:29:40;;;;;;;12.23;3.77;;;4.70;1.00;;;;;;5058018;28;20281;-63
2022/01/09 09:32:08;;;;;;;6.27;2.33;;;4.70;1.00;;;;;;5055104;28;20210;-63
2022/01/09 09:34:34;;;;;;;10.50;3.53;;;4.70;1.00;;;;;;5054925;28;20240;-62
2022/01/09 09:37:01;;;;;;;9.73;2.80;;;4.70;1.00;;;;;;5054634;28;20262;-63
2022/01/09 09:39:28;;;;;;;11.83;3.50;;;4.70;1.00;;;;;;5054765;28;20240;-63
2022/01/09 09:41:54;;;;;;;11.57;3.47;;;4.70;1.00;;;;;;5054950;28;20219;-63
2022/01/09 09:44:22;;;;;;;8.43;3.07;;;4.70;1.00;;;;;;5054218;28;20215;-62
2022/01/09 09:46:53;;;;;;;13.40;3.50;;;4.70;1.00;;;;;;5054256;28;20213;-62
2022/01/09 09:49:22;;;;;;;10.63;3.87;;;4.70;1.00;;;;;;5054327;28;20239;-62
2022/01/09 09:51:49;;;;;;;9.23;4.17;;;4.70;1.00;;;;;;5054401;28;20289;-62
2022/01/09 09:54:15;;;;;;;11.90;4.27;;;4.80;1.00;;;;;;5054119;28;20270;-62
2022/01/09 09:56:42;;;;;;;11.97;4.60;;;4.70;1.00;;;;;;5054769;28;20203;-62
2022/01/09 09:59:09;;;;;;;11.50;3.90;;;4.80;1.00;;;;;;5054151;28;20231;-61
2022/01/09 10:01:37;;;;;;;10.70;3.90;;;4.80;1.00;;;;;;5054138;28;20242;-62
2022/01/09 10:04:06;;;;;;;12.60;3.77;;;4.90;1.00;;;;;;5054246;28;20218;-62
2022/01/09 10:06:38;;;;;;;12.40;3.57;;;5.00;1.00;;;;;;5053579;28;20775;-62
2022/01/09 10:09:09;;;;;;;7.20;2.83;;;4.90;99.90;;;;;;5053934;28;20224;-62
2022/01/09 10:11:50;;;;;;;10.90;3.70;;;4.90;99.90;;;;;;5053841;28;20638;-62
2022/01/09 10:14:20;;;;;;;11.53;3.80;;;4.90;99.90;;;;;;5053974;28;20220;-62
2022/01/09 10:17:10;;;;;;;7.57;3.13;;;5.00;99.90;;;;;;5053798;28;20251;-62
2022/01/09 10:19:49;;;;;;;11.87;3.53;;;5.00;99.90;;;;;;5053960;28;20319;-62
2022/01/09 10:22:24;;;;;;;13.10;3.70;;;5.10;1.00;;;;;;5054295;28;20204;-63
2022/01/09 10:24:51;;;;;;;11.57;3.50;;;5.20;1.00;;;;;;5053763;28;20231;-62
2022/01/09 10:27:28;;;;;;;12.13;4.17;;;5.20;99.90;;;;;;5053521;28;20625;-63
2022/01/09 10:29:55;;;;;;;10.83;4.30;;;5.30;99.90;;;;;;5053422;28;20233;-62
2022/01/09 10:32:25;;;;;;;10.87;4.60;;;5.30;99.90;;;;;;5053795;28;20215;-65
2022/01/09 10:35:07;;;;;;;10.63;4.63;;;5.30;1.00;;;;;;5052719;28;20212;-62
2022/01/09 10:37:35;;;;;;;11.10;5.43;;;5.30;1.00;;;;;;5053456;28;20271;-61
2022/01/09 10:40:02;;;;;;;9.73;4.63;;;5.30;1.00;;;;;;5053363;28;20229;-63
2022/01/09 10:42:29;;;;;;;14.00;4.57;;;5.30;99.90;;;;;;5053460;28;20212;-62
2022/01/09 10:44:56;;;;;;;6.73;4.37;;;5.30;99.90;;;;;;5053003;28;20267;-62
2022/01/09 10:47:36;;;;;;;10.07;5.03;;;5.20;99.90;;;;;;5052849;28;20240;-62
2022/01/09 10:50:05;;;;;;;9.10;3.63;;;5.30;1.00;;;;;;5052840;28;20239;-62
2022/01/09 10:52:36;;;;;;;10.90;4.70;;;5.20;99.90;;;;;;5053039;28;20205;-62
2022/01/09 10:55:07;;;;;;;12.43;4.87;;;5.10;99.90;;;;;;5053138;28;20574;-62
2022/01/09 10:57:37;;;;;;;9.70;4.80;;;5.00;1.00;;;;;;5052838;28;20720;-62
2022/01/09 11:00:07;;;;;;;12.80;4.97;;;5.10;1.00;;;;;;5052957;28;20241;-61
2022/01/09 11:02:36;;;;;;;9.27;5.00;;;5.10;99.90;;;;;;5052972;28;20215;-62
2022/01/09 11:05:02;;;;;;;10.43;3.93;;;5.10;99.90;;;;;;5053175;28;20225;-62
2022/01/09 11:07:29;;;;;;;13.43;4.93;;;5.10;99.90;;;;;;5052633;28;20217;-62
2022/01/09 11:09:58;;;;;;;12.60;4.67;;;5.10;99.90;;;;;;5052778;28;20233;-62
2022/01/09 11:12:33;;;;;;;8.63;4.53;;;5.10;99.90;;;;;;5052362;28;20212;-62
2022/01/09 11:15:02;;;;;;;11.17;4.90;;;5.10;99.90;;;;;;5052504;28;20307;-62
2022/01/09 11:17:29;;;;;;;10.50;5.00;;;5.10;99.90;;;;;;5052800;28;20567;-62
2022/01/09 11:19:58;;;;;;;12.67;5.30;;;5.20;99.90;;;;;;5052776;28;20235;-62
2022/01/09 11:22:25;;;;;;;8.87;4.40;;;5.30;99.90;;;;;;5054005;28;20608;-62
2022/01/09 11:25:07;;;;;;;5.90;3.77;;;5.30;99.90;;;;;;5054000;28;20211;-62
2022/01/09 11:27:56;;;;;;;9.93;4.17;;;5.30;99.90;;;;;;5052602;28;20265;-62
2022/01/09 11:30:32;;;;;;;4.33;2.63;;;5.30;99.90;;;;;;5053583;28;20255;-61
2022/01/09 11:33:14;;;;;;;10.80;3.97;;;5.30;99.90;;;;;;5054136;28;20205;-62
2022/01/09 11:35:54;;;;;;;8.93;4.33;;;5.20;99.90;;;;;;5052324;28;20213;-62
2022/01/09 11:38:27;;;;;;;10.17;4.70;;;5.20;99.90;;;;;;5047534;28;20206;-63
2022/01/09 11:40:54;;;;;;;12.30;4.90;;;5.20;99.90;;;;;;5051227;28;20735;-62
2022/01/09 11:43:21;;;;;;;12.57;5.03;;;5.20;99.90;;;;;;5052312;28;20266;-62
2022/01/09 11:45:51;;;;;;;10.73;5.00;;;5.20;99.90;;;;;;5050588;28;20584;-64
2022/01/09 11:48:40;;;;;;;9.90;5.33;;;5.30;99.90;;;;;;5051794;28;20232;-63
2022/01/09 11:51:16;;;;;;;12.07;5.40;;;5.30;99.90;;;;;;5051879;28;20209;-61
2022/01/09 11:54:01;;;;;;;7.97;4.87;;;5.30;99.90;;;;;;5051696;28;20216;-61
2022/01/09 11:56:57;;;;;;;10.10;4.87;;;5.40;99.90;;;;;;5051744;28;20209;-67
2022/01/09 11:59:27;;;;;;;14.80;6.00;;;5.50;99.90;;;;;;5051316;28;20649;-68
2022/01/09 12:01:57;;;;;;;11.03;5.70;;;5.40;99.90;;;;;;5051750;28;20232;-65
2022/01/09 12:04:55;;;;;;;9.60;5.10;;;5.50;99.90;;;;;;5051056;28;20300;-65
2022/01/09 12:08:05;;;;;;;11.60;4.80;;;5.50;99.90;;;;;;5051443;28;20200;-63
2022/01/09 12:10:36;;;;;;;8.10;4.40;;;5.40;99.90;;;;;;5051239;28;20228;-61
2022/01/09 12:13:04;;;;;;;14.57;5.20;;;5.30;99.90;;;;;;5051942;28;20190;-62
2022/01/09 12:15:40;;;;;;;10.43;4.93;;;5.30;99.90;;;;;;5052050;28;20790;-62
2022/01/09 12:18:08;;;;;;;11.47;5.30;;;5.30;99.90;;;;;;5051523;28;20213;-62
2022/01/09 12:20:41;;;;;;;18.30;4.73;;;5.30;99.90;;;;;;5053752;28;20267;-61
2022/01/09 12:23:09;;;;;;;10.67;4.47;;;5.20;1.00;;;;;;5051489;28;20207;-61
2022/01/09 12:25:45;;;;;;;11.03;4.67;;;5.30;1.00;;;;;;5051408;28;20710;-61
2022/01/09 12:28:14;;;;;;;9.23;4.43;;;5.30;1.00;;;;;;5051141;28;20293;-60
2022/01/09 12:30:54;;;;;;;11.93;4.43;;;5.30;1.00;;;;;;5051225;28;20282;-62
2022/01/09 12:33:49;;;;;;;8.00;3.93;;;5.40;1.00;;;;;;5051341;28;20300;-62
2022/01/09 12:36:27;;;;;;;7.37;4.07;;;5.40;1.00;;;;;;5051416;28;20188;-62
2022/01/09 12:38:57;;;;;;;15.33;4.00;;;5.40;99.90;;;;;;5050828;28;20711;-63
2022/01/09 12:41:28;;;;;;;9.27;3.97;;;5.50;99.90;;;;;;5051389;28;20621;-62
2022/01/09 12:44:00;;;;;;;13.83;4.67;;;5.60;99.90;;;;;;5051320;28;20219;-60
2022/01/09 12:46:28;;;;;;;6.47;3.83;;;5.60;99.90;;;;;;5051069;28;20238;-63
2022/01/09 12:48:57;;;;;;;6.03;4.00;;;5.50;99.90;;;;;;5051090;28;20230;-63
2022/01/09 12:51:25;;;;;;;10.03;4.37;;;5.50;99.90;;;;;;5051263;28;20675;-62
2022/01/09 12:53:53;;;;;;;12.33;4.57;;;5.40;99.90;;;;;;5051009;28;20210;-62
2022/01/09 12:56:21;;;;;;;10.17;4.87;;;5.40;99.90;;;;;;5051318;28;20202;-62
2022/01/09 12:58:51;;;;;;;10.60;4.37;;;5.50;99.90;;;;;;5054298;28;20217;-63
2022/01/09 13:01:20;;;;;;;12.60;4.50;;;5.60;99.90;;;;;;5054925;28;20229;-61
2022/01/09 13:03:49;;;;;;;12.20;3.83;;;5.60;99.90;;;;;;5055035;28;20225;-62
2022/01/09 13:06:18;;;;;;;7.17;4.57;;;5.70;99.90;;;;;;5054712;28;20225;-61
2022/01/09 13:08:46;;;;;;;10.87;4.90;;;5.70;99.90;;;;;;5054819;28;20213;-61